Algoma Mariner — CFN5517 — position and weather

sailwx.info

Track history (hours):
 
Tides and Currents Weather Stations Pressure Air Temp Water Temp Dewpoint Dewpoint Depression Visibility Wind Speed Wind Dir Waves Ship Positions

Algoma Mariner

Last reported at 2016-Jul-25 07:33 UTC. Time now 2016-Jul-25 08:08 UTC.
Position N 46°16' W 072°38'.

Length 225 m; draft 10.1 m.

Type: Cargo ship. MMSI: 316014050.

Date/timePositionNaut miles runAvg speedWind from/ knotsBaromVisibWave heightAir tempDewpointWater temp
2016-Jul-25 07:33N 46°16' W 072°38'  
2016-Jul-22 10:18N 46°16' W 072°41'1213.9
2016-Jul-22 09:25N 46°10' W 072°56'1112.5
2016-Jul-22 08:33N 46°03' W 073°08'1313.3
2016-Jul-22 07:33N 45°51' W 073°16'1 0.4
2016-Jul-22 04:31N 45°50' W 073°17'0 0.0
2016-Jul-22 03:31N 45°50' W 073°17'0 0.0
2016-Jul-22 02:31N 45°50' W 073°17'0 0.0
2016-Jul-22 01:31N 45°50' W 073°17'0 0.0
2016-Jul-22 00:31N 45°50' W 073°17'0 0.0
2016-Jul-21 23:31N 45°50' W 073°17'0 0.0
2016-Jul-21 22:31N 45°50' W 073°17'0 0.0
2016-Jul-21 21:33N 45°50' W 073°17'4 3.9
2016-Jul-21 20:33N 45°53' W 073°14'8 8.4
2016-Jul-21 19:33N 46°01' W 073°10'7 7.1
2016-Jul-21 18:33N 46°05' W 073°01'9 8.6
2016-Jul-21 17:33N 46°12' W 072°54'10 9.7
2016-Jul-21 16:33N 46°16' W 072°41'  
2016-Jul-18 10:20N 46°16' W 072°39'1113.6
2016-Jul-18 09:33N 46°12' W 072°53'1313.4
2016-Jul-18 08:34N 46°03' W 073°08'1313.5
2016-Jul-18 07:34N 45°51' W 073°16'1 0.9
2016-Jul-18 06:23N 45°50' W 073°17'0 0.0
2016-Jul-18 05:32N 45°50' W 073°17'0 0.0
2016-Jul-18 04:32N 45°50' W 073°17'0 0.0
2016-Jul-18 03:32N 45°50' W 073°17'0 0.0
2016-Jul-18 02:29N 45°50' W 073°17'0 0.0
2016-Jul-18 01:29N 45°50' W 073°17'0 0.0
2016-Jul-18 00:29N 45°50' W 073°17'0 0.0
2016-Jul-17 23:29N 45°50' W 073°17'0 0.0
2016-Jul-17 22:32N 45°50' W 073°17'0 0.0
2016-Jul-17 21:32N 45°50' W 073°17'0 0.3
2016-Jul-17 20:33N 45°50' W 073°17'6 6.4
2016-Jul-17 19:33N 45°56' W 073°13'9 8.6
2016-Jul-17 18:33N 46°03' W 073°07'9 8.5
2016-Jul-17 17:33N 46°09' W 072°57'9 9.4
2016-Jul-17 16:33N 46°14' W 072°46'  
Track history (hours):
 
Tides and Currents Weather Stations Pressure Air Temp Water Temp Dewpoint Dewpoint Depression Visibility Wind Speed Wind Dir Waves Ship Positions

Algoma Mariner

Last reported at 2016-Jul-25 07:33 UTC. Time now 2016-Jul-25 08:08 UTC.
Position N 46°16' W 072°38'.

Length 225 m; draft 10.1 m.

Type: Cargo ship. MMSI: 316014050.

Date/timePositionNaut miles runAvg speedWind from/ knotsBaromVisibWave heightAir tempDewpointWater temp
2016-Jul-25 07:33N 46°16' W 072°38'  
2016-Jul-22 10:18N 46°16' W 072°41'1213.9
2016-Jul-22 09:25N 46°10' W 072°56'1112.5
2016-Jul-22 08:33N 46°03' W 073°08'1313.3
2016-Jul-22 07:33N 45°51' W 073°16'1 0.4
2016-Jul-22 04:31N 45°50' W 073°17'0 0.0
2016-Jul-22 03:31N 45°50' W 073°17'0 0.0
2016-Jul-22 02:31N 45°50' W 073°17'0 0.0
2016-Jul-22 01:31N 45°50' W 073°17'0 0.0
2016-Jul-22 00:31N 45°50' W 073°17'0 0.0
2016-Jul-21 23:31N 45°50' W 073°17'0 0.0
2016-Jul-21 22:31N 45°50' W 073°17'0 0.0
2016-Jul-21 21:33N 45°50' W 073°17'4 3.9
2016-Jul-21 20:33N 45°53' W 073°14'8 8.4
2016-Jul-21 19:33N 46°01' W 073°10'7 7.1
2016-Jul-21 18:33N 46°05' W 073°01'9 8.6
2016-Jul-21 17:33N 46°12' W 072°54'10 9.7
2016-Jul-21 16:33N 46°16' W 072°41'  
2016-Jul-18 10:20N 46°16' W 072°39'1113.6
2016-Jul-18 09:33N 46°12' W 072°53'1313.4
2016-Jul-18 08:34N 46°03' W 073°08'1313.5
2016-Jul-18 07:34N 45°51' W 073°16'1 0.9
2016-Jul-18 06:23N 45°50' W 073°17'0 0.0
2016-Jul-18 05:32N 45°50' W 073°17'0 0.0
2016-Jul-18 04:32N 45°50' W 073°17'0 0.0
2016-Jul-18 03:32N 45°50' W 073°17'0 0.0
2016-Jul-18 02:29N 45°50' W 073°17'0 0.0
2016-Jul-18 01:29N 45°50' W 073°17'0 0.0
2016-Jul-18 00:29N 45°50' W 073°17'0 0.0
2016-Jul-17 23:29N 45°50' W 073°17'0 0.0
2016-Jul-17 22:32N 45°50' W 073°17'0 0.0
2016-Jul-17 21:32N 45°50' W 073°17'0 0.3
2016-Jul-17 20:33N 45°50' W 073°17'6 6.4
2016-Jul-17 19:33N 45°56' W 073°13'9 8.6
2016-Jul-17 18:33N 46°03' W 073°07'9 8.5
2016-Jul-17 17:33N 46°09' W 072°57'9 9.4
2016-Jul-17 16:33N 46°14' W 072°46'  

Dump ship's entire track history